sensor_id;sensor_type;location;lat;lon;timestamp;P1;durP1;ratioP1;P2;durP2;ratioP2
78838;SDS011;68405;47.190;27.558;2023-03-13T00:02:06;15.20;;;7.50;;
78838;SDS011;68405;47.190;27.558;2023-03-13T00:04:38;13.40;;;6.60;;
78838;SDS011;68405;47.190;27.558;2023-03-13T00:07:09;10.40;;;6.70;;
78838;SDS011;68405;47.190;27.558;2023-03-13T00:09:41;10.90;;;7.20;;
78838;SDS011;68405;47.190;27.558;2023-03-13T00:12:13;11.70;;;7.30;;
78838;SDS011;68405;47.190;27.558;2023-03-13T00:14:45;10.60;;;5.50;;
78838;SDS011;68405;47.190;27.558;2023-03-13T00:17:16;10.80;;;5.70;;
78838;SDS011;68405;47.190;27.558;2023-03-13T00:19:48;9.20;;;5.80;;
78838;SDS011;68405;47.190;27.558;2023-03-13T00:22:20;8.70;;;5.10;;
78838;SDS011;68405;47.190;27.558;2023-03-13T00:24:52;6.20;;;4.00;;
78838;SDS011;68405;47.190;27.558;2023-03-13T00:27:23;9.40;;;5.30;;
78838;SDS011;68405;47.190;27.558;2023-03-13T00:29:55;9.10;;;4.90;;
78838;SDS011;68405;47.190;27.558;2023-03-13T00:32:26;9.40;;;5.30;;
78838;SDS011;68405;47.190;27.558;2023-03-13T00:34:58;11.40;;;6.10;;
78838;SDS011;68405;47.190;27.558;2023-03-13T00:37:32;7.00;;;4.60;;
78838;SDS011;68405;47.190;27.558;2023-03-13T00:40:04;11.50;;;5.30;;
78838;SDS011;68405;47.190;27.558;2023-03-13T00:42:37;8.30;;;4.70;;
78838;SDS011;68405;47.190;27.558;2023-03-13T00:45:10;9.90;;;5.00;;
78838;SDS011;68405;47.190;27.558;2023-03-13T00:47:42;10.90;;;4.80;;
78838;SDS011;68405;47.190;27.558;2023-03-13T00:50:14;8.40;;;5.40;;
78838;SDS011;68405;47.190;27.558;2023-03-13T00:52:46;9.50;;;5.30;;
78838;SDS011;68405;47.190;27.558;2023-03-13T00:55:17;11.50;;;5.40;;
78838;SDS011;68405;47.190;27.558;2023-03-13T00:57:49;8.50;;;5.80;;
78838;SDS011;68405;47.190;27.558;2023-03-13T01:00:21;11.20;;;5.40;;
78838;SDS011;68405;47.190;27.558;2023-03-13T01:02:53;11.10;;;5.40;;
78838;SDS011;68405;47.190;27.558;2023-03-13T01:05:25;7.20;;;4.20;;
78838;SDS011;68405;47.190;27.558;2023-03-13T01:07:57;7.10;;;4.10;;
78838;SDS011;68405;47.190;27.558;2023-03-13T01:10:28;9.30;;;4.50;;
78838;SDS011;68405;47.190;27.558;2023-03-13T01:13:00;7.10;;;3.80;;
78838;SDS011;68405;47.190;27.558;2023-03-13T01:15:35;6.30;;;3.80;;
78838;SDS011;68405;47.190;27.558;2023-03-13T01:18:06;6.50;;;4.30;;
78838;SDS011;68405;47.190;27.558;2023-03-13T01:20:38;11.00;;;5.40;;
78838;SDS011;68405;47.190;27.558;2023-03-13T01:23:10;9.80;;;5.30;;
78838;SDS011;68405;47.190;27.558;2023-03-13T01:25:43;9.40;;;5.50;;
78838;SDS011;68405;47.190;27.558;2023-03-13T01:28:14;9.50;;;6.00;;
78838;SDS011;68405;47.190;27.558;2023-03-13T01:30:46;10.90;;;6.80;;
78838;SDS011;68405;47.190;27.558;2023-03-13T01:33:18;12.00;;;6.90;;
78838;SDS011;68405;47.190;27.558;2023-03-13T01:35:50;14.60;;;8.10;;
78838;SDS011;68405;47.190;27.558;2023-03-13T01:38:21;11.50;;;6.50;;
78838;SDS011;68405;47.190;27.558;2023-03-13T01:40:53;10.80;;;6.50;;
78838;SDS011;68405;47.190;27.558;2023-03-13T01:43:26;10.10;;;5.40;;
78838;SDS011;68405;47.190;27.558;2023-03-13T01:48:46;8.00;;;4.60;;
78838;SDS011;68405;47.190;27.558;2023-03-13T01:53:54;9.80;;;5.10;;
78838;SDS011;68405;47.190;27.558;2023-03-13T01:56:30;11.10;;;5.60;;
78838;SDS011;68405;47.190;27.558;2023-03-13T01:59:08;10.70;;;5.70;;
78838;SDS011;68405;47.190;27.558;2023-03-13T02:04:14;11.70;;;4.90;;
78838;SDS011;68405;47.190;27.558;2023-03-13T02:06:48;11.90;;;5.90;;
78838;SDS011;68405;47.190;27.558;2023-03-13T02:09:25;8.90;;;4.90;;
78838;SDS011;68405;47.190;27.558;2023-03-13T02:12:00;9.10;;;5.20;;
78838;SDS011;68405;47.190;27.558;2023-03-13T02:14:35;10.10;;;5.60;;
78838;SDS011;68405;47.190;27.558;2023-03-13T02:17:09;10.40;;;5.40;;
78838;SDS011;68405;47.190;27.558;2023-03-13T02:19:43;9.00;;;5.10;;
78838;SDS011;68405;47.190;27.558;2023-03-13T02:22:18;9.20;;;5.10;;
78838;SDS011;68405;47.190;27.558;2023-03-13T02:24:55;7.30;;;4.80;;
78838;SDS011;68405;47.190;27.558;2023-03-13T02:27:32;7.70;;;4.30;;
78838;SDS011;68405;47.190;27.558;2023-03-13T02:30:04;10.00;;;4.90;;
78838;SDS011;68405;47.190;27.558;2023-03-13T02:32:37;7.60;;;5.20;;
78838;SDS011;68405;47.190;27.558;2023-03-13T02:35:11;10.90;;;5.50;;
78838;SDS011;68405;47.190;27.558;2023-03-13T02:37:46;10.70;;;6.20;;
78838;SDS011;68405;47.190;27.558;2023-03-13T02:40:21;9.80;;;5.50;;
78838;SDS011;68405;47.190;27.558;2023-03-13T02:42:57;8.10;;;4.70;;
78838;SDS011;68405;47.190;27.558;2023-03-13T02:45:33;9.80;;;4.90;;
78838;SDS011;68405;47.190;27.558;2023-03-13T02:48:05;9.50;;;5.30;;
78838;SDS011;68405;47.190;27.558;2023-03-13T02:50:37;9.10;;;5.80;;
78838;SDS011;68405;47.190;27.558;2023-03-13T02:53:08;11.00;;;6.80;;
78838;SDS011;68405;47.190;27.558;2023-03-13T02:55:40;15.20;;;7.90;;
78838;SDS011;68405;47.190;27.558;2023-03-13T02:58:12;16.40;;;8.40;;
78838;SDS011;68405;47.190;27.558;2023-03-13T03:00:44;10.60;;;6.70;;
78838;SDS011;68405;47.190;27.558;2023-03-13T03:03:16;12.60;;;7.70;;
78838;SDS011;68405;47.190;27.558;2023-03-13T03:05:47;13.20;;;8.00;;
78838;SDS011;68405;47.190;27.558;2023-03-13T03:08:19;13.70;;;7.50;;
78838;SDS011;68405;47.190;27.558;2023-03-13T03:10:51;17.90;;;8.70;;
78838;SDS011;68405;47.190;27.558;2023-03-13T03:13:23;15.30;;;8.80;;
78838;SDS011;68405;47.190;27.558;2023-03-13T03:15:54;17.10;;;8.70;;
78838;SDS011;68405;47.190;27.558;2023-03-13T03:18:26;16.70;;;8.10;;
78838;SDS011;68405;47.190;27.558;2023-03-13T03:20:58;11.60;;;7.60;;
78838;SDS011;68405;47.190;27.558;2023-03-13T03:23:32;12.20;;;6.40;;
78838;SDS011;68405;47.190;27.558;2023-03-13T03:26:05;10.00;;;5.30;;
78838;SDS011;68405;47.190;27.558;2023-03-13T03:28:38;11.30;;;6.60;;
78838;SDS011;68405;47.190;27.558;2023-03-13T03:31:10;9.10;;;5.80;;
78838;SDS011;68405;47.190;27.558;2023-03-13T03:33:43;13.00;;;6.00;;
78838;SDS011;68405;47.190;27.558;2023-03-13T03:36:16;13.40;;;6.20;;
78838;SDS011;68405;47.190;27.558;2023-03-13T03:38:49;13.50;;;5.40;;
78838;SDS011;68405;47.190;27.558;2023-03-13T03:41:21;8.10;;;5.10;;
78838;SDS011;68405;47.190;27.558;2023-03-13T03:43:53;9.00;;;4.90;;
78838;SDS011;68405;47.190;27.558;2023-03-13T03:46:25;7.80;;;4.90;;
78838;SDS011;68405;47.190;27.558;2023-03-13T03:48:56;10.50;;;5.80;;
78838;SDS011;68405;47.190;27.558;2023-03-13T03:51:28;8.60;;;4.50;;
78838;SDS011;68405;47.190;27.558;2023-03-13T03:54:00;8.00;;;5.10;;
78838;SDS011;68405;47.190;27.558;2023-03-13T03:56:31;7.60;;;4.00;;
78838;SDS011;68405;47.190;27.558;2023-03-13T03:59:03;9.80;;;4.50;;
78838;SDS011;68405;47.190;27.558;2023-03-13T04:01:35;6.70;;;4.30;;
78838;SDS011;68405;47.190;27.558;2023-03-13T04:04:07;9.50;;;4.90;;
78838;SDS011;68405;47.190;27.558;2023-03-13T04:06:39;5.80;;;4.10;;
78838;SDS011;68405;47.190;27.558;2023-03-13T04:09:10;14.20;;;5.60;;
78838;SDS011;68405;47.190;27.558;2023-03-13T04:11:42;10.10;;;5.40;;
78838;SDS011;68405;47.190;27.558;2023-03-13T04:14:14;7.90;;;4.60;;
78838;SDS011;68405;47.190;27.558;2023-03-13T04:16:46;9.90;;;5.20;;
78838;SDS011;68405;47.190;27.558;2023-03-13T04:19:18;7.50;;;4.90;;
78838;SDS011;68405;47.190;27.558;2023-03-13T04:21:50;9.60;;;5.50;;
78838;SDS011;68405;47.190;27.558;2023-03-13T04:24:22;8.20;;;5.40;;
78838;SDS011;68405;47.190;27.558;2023-03-13T04:26:54;13.30;;;6.40;;
78838;SDS011;68405;47.190;27.558;2023-03-13T04:29:25;11.40;;;6.60;;
78838;SDS011;68405;47.190;27.558;2023-03-13T04:31:58;10.50;;;5.60;;
78838;SDS011;68405;47.190;27.558;2023-03-13T04:34:30;11.50;;;5.70;;
78838;SDS011;68405;47.190;27.558;2023-03-13T04:37:02;11.70;;;5.20;;
78838;SDS011;68405;47.190;27.558;2023-03-13T04:39:34;10.20;;;5.30;;
78838;SDS011;68405;47.190;27.558;2023-03-13T04:42:06;11.00;;;5.30;;
78838;SDS011;68405;47.190;27.558;2023-03-13T04:44:38;7.30;;;5.30;;
78838;SDS011;68405;47.190;27.558;2023-03-13T04:47:10;9.00;;;5.60;;
78838;SDS011;68405;47.190;27.558;2023-03-13T04:49:42;10.70;;;5.40;;
78838;SDS011;68405;47.190;27.558;2023-03-13T04:52:13;8.60;;;5.10;;
78838;SDS011;68405;47.190;27.558;2023-03-13T04:54:45;9.00;;;4.60;;
78838;SDS011;68405;47.190;27.558;2023-03-13T04:57:18;8.60;;;5.10;;
78838;SDS011;68405;47.190;27.558;2023-03-13T04:59:50;10.20;;;5.00;;
78838;SDS011;68405;47.190;27.558;2023-03-13T05:02:21;8.10;;;5.10;;
78838;SDS011;68405;47.190;27.558;2023-03-13T05:04:54;7.40;;;4.40;;
78838;SDS011;68405;47.190;27.558;2023-03-13T05:07:26;9.00;;;4.50;;
78838;SDS011;68405;47.190;27.558;2023-03-13T05:09:58;7.10;;;4.50;;
78838;SDS011;68405;47.190;27.558;2023-03-13T05:12:30;9.60;;;5.20;;
78838;SDS011;68405;47.190;27.558;2023-03-13T05:15:02;7.90;;;5.20;;
78838;SDS011;68405;47.190;27.558;2023-03-13T05:17:34;14.70;;;5.40;;
78838;SDS011;68405;47.190;27.558;2023-03-13T05:20:07;8.90;;;4.90;;
78838;SDS011;68405;47.190;27.558;2023-03-13T05:22:40;11.70;;;5.90;;
78838;SDS011;68405;47.190;27.558;2023-03-13T05:25:12;10.40;;;5.90;;
78838;SDS011;68405;47.190;27.558;2023-03-13T05:27:43;8.70;;;5.40;;
78838;SDS011;68405;47.190;27.558;2023-03-13T05:30:16;9.40;;;5.90;;
78838;SDS011;68405;47.190;27.558;2023-03-13T05:32:48;9.00;;;5.40;;
78838;SDS011;68405;47.190;27.558;2023-03-13T05:35:19;7.50;;;5.30;;
78838;SDS011;68405;47.190;27.558;2023-03-13T05:37:51;7.30;;;5.50;;
78838;SDS011;68405;47.190;27.558;2023-03-13T05:40:23;8.90;;;5.60;;
78838;SDS011;68405;47.190;27.558;2023-03-13T05:42:55;10.90;;;6.00;;
78838;SDS011;68405;47.190;27.558;2023-03-13T05:45:27;10.60;;;6.50;;
78838;SDS011;68405;47.190;27.558;2023-03-13T05:47:59;12.00;;;6.60;;
78838;SDS011;68405;47.190;27.558;2023-03-13T05:50:31;10.00;;;6.20;;
78838;SDS011;68405;47.190;27.558;2023-03-13T05:53:03;11.80;;;6.10;;
78838;SDS011;68405;47.190;27.558;2023-03-13T05:55:35;11.30;;;6.90;;
78838;SDS011;68405;47.190;27.558;2023-03-13T05:58:07;11.20;;;7.40;;
78838;SDS011;68405;47.190;27.558;2023-03-13T06:00:39;11.30;;;6.90;;
78838;SDS011;68405;47.190;27.558;2023-03-13T06:03:11;13.60;;;7.10;;
78838;SDS011;68405;47.190;27.558;2023-03-13T06:05:43;12.80;;;7.20;;
78838;SDS011;68405;47.190;27.558;2023-03-13T06:08:15;10.80;;;6.40;;
78838;SDS011;68405;47.190;27.558;2023-03-13T06:10:46;16.20;;;7.80;;
78838;SDS011;68405;47.190;27.558;2023-03-13T06:13:18;13.70;;;9.50;;
78838;SDS011;68405;47.190;27.558;2023-03-13T06:15:53;16.90;;;8.50;;
78838;SDS011;68405;47.190;27.558;2023-03-13T06:18:26;12.20;;;6.50;;
78838;SDS011;68405;47.190;27.558;2023-03-13T06:20:58;11.50;;;7.00;;
78838;SDS011;68405;47.190;27.558;2023-03-13T06:23:31;10.00;;;7.00;;
78838;SDS011;68405;47.190;27.558;2023-03-13T06:26:03;12.10;;;7.10;;
78838;SDS011;68405;47.190;27.558;2023-03-13T06:28:35;13.40;;;7.00;;
78838;SDS011;68405;47.190;27.558;2023-03-13T06:31:07;13.50;;;7.90;;
78838;SDS011;68405;47.190;27.558;2023-03-13T06:33:39;14.50;;;7.80;;
78838;SDS011;68405;47.190;27.558;2023-03-13T06:36:11;18.20;;;10.00;;
78838;SDS011;68405;47.190;27.558;2023-03-13T06:38:42;15.60;;;9.80;;
78838;SDS011;68405;47.190;27.558;2023-03-13T06:41:14;18.60;;;9.90;;
78838;SDS011;68405;47.190;27.558;2023-03-13T06:43:46;21.30;;;10.60;;
78838;SDS011;68405;47.190;27.558;2023-03-13T06:46:19;18.60;;;9.30;;
78838;SDS011;68405;47.190;27.558;2023-03-13T06:48:52;14.70;;;8.90;;
78838;SDS011;68405;47.190;27.558;2023-03-13T06:51:23;21.20;;;9.30;;
78838;SDS011;68405;47.190;27.558;2023-03-13T06:53:56;16.20;;;8.30;;
78838;SDS011;68405;47.190;27.558;2023-03-13T06:56:27;13.10;;;7.10;;
78838;SDS011;68405;47.190;27.558;2023-03-13T06:58:59;11.20;;;7.40;;
78838;SDS011;68405;47.190;27.558;2023-03-13T07:01:31;12.00;;;8.20;;
78838;SDS011;68405;47.190;27.558;2023-03-13T07:04:03;12.00;;;6.60;;
78838;SDS011;68405;47.190;27.558;2023-03-13T07:06:34;13.10;;;6.60;;
78838;SDS011;68405;47.190;27.558;2023-03-13T07:09:06;19.90;;;7.30;;
78838;SDS011;68405;47.190;27.558;2023-03-13T07:11:39;10.00;;;6.70;;
78838;SDS011;68405;47.190;27.558;2023-03-13T07:14:11;11.30;;;6.50;;
78838;SDS011;68405;47.190;27.558;2023-03-13T07:16:43;9.70;;;5.30;;
78838;SDS011;68405;47.190;27.558;2023-03-13T07:19:15;9.00;;;5.90;;
78838;SDS011;68405;47.190;27.558;2023-03-13T07:21:47;9.40;;;6.50;;
78838;SDS011;68405;47.190;27.558;2023-03-13T07:24:20;8.70;;;6.20;;
78838;SDS011;68405;47.190;27.558;2023-03-13T07:26:52;13.80;;;7.40;;
78838;SDS011;68405;47.190;27.558;2023-03-13T07:29:24;13.60;;;7.10;;
78838;SDS011;68405;47.190;27.558;2023-03-13T07:31:56;15.10;;;7.70;;
78838;SDS011;68405;47.190;27.558;2023-03-13T07:34:28;12.90;;;8.20;;
78838;SDS011;68405;47.190;27.558;2023-03-13T07:36:59;13.10;;;8.30;;
78838;SDS011;68405;47.190;27.558;2023-03-13T07:39:31;12.70;;;6.90;;
78838;SDS011;68405;47.190;27.558;2023-03-13T07:42:04;11.70;;;6.80;;
78838;SDS011;68405;47.190;27.558;2023-03-13T07:44:36;11.50;;;5.80;;
78838;SDS011;68405;47.190;27.558;2023-03-13T07:47:08;11.80;;;6.40;;
78838;SDS011;68405;47.190;27.558;2023-03-13T07:49:39;14.00;;;5.90;;
78838;SDS011;68405;47.190;27.558;2023-03-13T07:52:13;9.40;;;5.20;;
78838;SDS011;68405;47.190;27.558;2023-03-13T07:54:46;12.00;;;5.40;;
78838;SDS011;68405;47.190;27.558;2023-03-13T07:57:19;8.00;;;4.80;;
78838;SDS011;68405;47.190;27.558;2023-03-13T07:59:51;7.20;;;4.20;;
78838;SDS011;68405;47.190;27.558;2023-03-13T08:02:23;4.50;;;3.20;;
78838;SDS011;68405;47.190;27.558;2023-03-13T08:04:55;5.10;;;3.40;;
78838;SDS011;68405;47.190;27.558;2023-03-13T08:07:27;5.60;;;3.50;;
78838;SDS011;68405;47.190;27.558;2023-03-13T08:09:59;5.60;;;3.30;;
78838;SDS011;68405;47.190;27.558;2023-03-13T08:12:31;5.20;;;3.20;;
78838;SDS011;68405;47.190;27.558;2023-03-13T08:15:03;5.00;;;3.60;;
78838;SDS011;68405;47.190;27.558;2023-03-13T08:17:36;4.60;;;3.30;;
78838;SDS011;68405;47.190;27.558;2023-03-13T08:20:09;5.90;;;3.80;;
78838;SDS011;68405;47.190;27.558;2023-03-13T08:22:42;4.50;;;3.30;;
78838;SDS011;68405;47.190;27.558;2023-03-13T08:25:14;5.70;;;3.90;;
78838;SDS011;68405;47.190;27.558;2023-03-13T08:27:47;6.90;;;4.00;;
78838;SDS011;68405;47.190;27.558;2023-03-13T08:30:19;6.20;;;3.80;;
78838;SDS011;68405;47.190;27.558;2023-03-13T08:32:51;6.10;;;4.60;;
78838;SDS011;68405;47.190;27.558;2023-03-13T08:35:23;6.60;;;4.10;;
78838;SDS011;68405;47.190;27.558;2023-03-13T08:37:57;7.30;;;4.30;;
78838;SDS011;68405;47.190;27.558;2023-03-13T08:40:30;7.00;;;4.40;;
78838;SDS011;68405;47.190;27.558;2023-03-13T08:43:02;9.20;;;5.10;;
78838;SDS011;68405;47.190;27.558;2023-03-13T08:45:33;12.10;;;5.60;;
78838;SDS011;68405;47.190;27.558;2023-03-13T08:48:05;7.20;;;5.10;;
78838;SDS011;68405;47.190;27.558;2023-03-13T08:50:37;6.30;;;4.70;;
78838;SDS011;68405;47.190;27.558;2023-03-13T08:53:09;7.50;;;5.00;;
78838;SDS011;68405;47.190;27.558;2023-03-13T08:55:41;8.30;;;5.40;;
78838;SDS011;68405;47.190;27.558;2023-03-13T08:58:13;8.70;;;5.00;;
78838;SDS011;68405;47.190;27.558;2023-03-13T09:00:45;10.90;;;5.00;;
78838;SDS011;68405;47.190;27.558;2023-03-13T09:03:17;7.20;;;4.80;;
78838;SDS011;68405;47.190;27.558;2023-03-13T09:05:49;8.70;;;5.10;;
78838;SDS011;68405;47.190;27.558;2023-03-13T09:08:21;11.30;;;5.30;;
78838;SDS011;68405;47.190;27.558;2023-03-13T09:10:57;8.80;;;5.10;;
78838;SDS011;68405;47.190;27.558;2023-03-13T09:13:30;7.20;;;5.00;;
78838;SDS011;68405;47.190;27.558;2023-03-13T09:16:05;8.40;;;5.50;;
78838;SDS011;68405;47.190;27.558;2023-03-13T09:18:38;8.80;;;4.70;;
78838;SDS011;68405;47.190;27.558;2023-03-13T09:21:11;6.80;;;3.90;;
78838;SDS011;68405;47.190;27.558;2023-03-13T09:23:45;7.20;;;3.40;;
78838;SDS011;68405;47.190;27.558;2023-03-13T09:26:17;6.80;;;3.50;;
78838;SDS011;68405;47.190;27.558;2023-03-13T09:28:51;7.20;;;3.50;;
78838;SDS011;68405;47.190;27.558;2023-03-13T09:31:23;6.60;;;3.60;;
78838;SDS011;68405;47.190;27.558;2023-03-13T09:36:27;5.00;;;3.60;;
78838;SDS011;68405;47.190;27.558;2023-03-13T09:39:00;9.10;;;4.40;;
78838;SDS011;68405;47.190;27.558;2023-03-13T09:41:33;5.90;;;3.80;;
78838;SDS011;68405;47.190;27.558;2023-03-13T09:44:10;7.10;;;4.10;;
78838;SDS011;68405;47.190;27.558;2023-03-13T09:46:53;9.00;;;4.40;;
78838;SDS011;68405;47.190;27.558;2023-03-13T09:49:31;6.50;;;4.10;;
78838;SDS011;68405;47.190;27.558;2023-03-13T09:52:12;7.50;;;3.90;;
78838;SDS011;68405;47.190;27.558;2023-03-13T09:54:48;5.40;;;3.30;;
78838;SDS011;68405;47.190;27.558;2023-03-13T09:57:25;5.60;;;3.50;;
78838;SDS011;68405;47.190;27.558;2023-03-13T10:02:39;5.80;;;4.10;;
78838;SDS011;68405;47.190;27.558;2023-03-13T10:05:16;4.70;;;3.10;;
78838;SDS011;68405;47.190;27.558;2023-03-13T10:07:52;7.10;;;3.40;;
78838;SDS011;68405;47.190;27.558;2023-03-13T10:10:36;4.50;;;3.60;;
78838;SDS011;68405;47.190;27.558;2023-03-13T10:13:14;4.20;;;3.40;;
78838;SDS011;68405;47.190;27.558;2023-03-13T10:15:54;5.10;;;2.90;;
78838;SDS011;68405;47.190;27.558;2023-03-13T10:18:30;3.30;;;2.30;;
78838;SDS011;68405;47.190;27.558;2023-03-13T10:21:03;4.40;;;2.50;;
78838;SDS011;68405;47.190;27.558;2023-03-13T10:23:47;4.20;;;2.40;;
78838;SDS011;68405;47.190;27.558;2023-03-13T10:26:24;6.80;;;3.10;;
78838;SDS011;68405;47.190;27.558;2023-03-13T10:29:00;3.80;;;2.10;;
78838;SDS011;68405;47.190;27.558;2023-03-13T10:31:53;3.70;;;2.30;;
78838;SDS011;68405;47.190;27.558;2023-03-13T10:34:28;5.00;;;2.10;;
78838;SDS011;68405;47.190;27.558;2023-03-13T10:37:15;3.10;;;1.90;;
78838;SDS011;68405;47.190;27.558;2023-03-13T10:39:49;3.40;;;2.20;;
78838;SDS011;68405;47.190;27.558;2023-03-13T10:42:25;3.30;;;2.00;;
78838;SDS011;68405;47.190;27.558;2023-03-13T10:45:03;4.90;;;2.20;;
78838;SDS011;68405;47.190;27.558;2023-03-13T10:47:35;2.80;;;2.10;;
78838;SDS011;68405;47.190;27.558;2023-03-13T10:50:11;6.10;;;2.40;;
78838;SDS011;68405;47.190;27.558;2023-03-13T10:52:51;3.20;;;1.90;;
78838;SDS011;68405;47.190;27.558;2023-03-13T10:55:24;3.80;;;2.00;;
78838;SDS011;68405;47.190;27.558;2023-03-13T10:57:58;3.30;;;2.30;;
78838;SDS011;68405;47.190;27.558;2023-03-13T11:00:34;3.40;;;1.80;;
78838;SDS011;68405;47.190;27.558;2023-03-13T11:03:13;3.40;;;2.40;;
78838;SDS011;68405;47.190;27.558;2023-03-13T11:05:55;2.90;;;1.80;;
78838;SDS011;68405;47.190;27.558;2023-03-13T11:08:32;2.20;;;1.70;;
78838;SDS011;68405;47.190;27.558;2023-03-13T11:11:14;2.70;;;1.80;;
78838;SDS011;68405;47.190;27.558;2023-03-13T11:13:49;3.50;;;1.90;;
78838;SDS011;68405;47.190;27.558;2023-03-13T11:16:21;3.40;;;1.80;;
78838;SDS011;68405;47.190;27.558;2023-03-13T11:19:05;2.80;;;2.10;;
78838;SDS011;68405;47.190;27.558;2023-03-13T11:21:56;3.80;;;2.40;;
78838;SDS011;68405;47.190;27.558;2023-03-13T11:24:39;3.90;;;2.40;;
78838;SDS011;68405;47.190;27.558;2023-03-13T11:27:16;3.50;;;2.60;;
78838;SDS011;68405;47.190;27.558;2023-03-13T11:30:00;3.30;;;1.90;;
78838;SDS011;68405;47.190;27.558;2023-03-13T11:32:42;2.80;;;2.30;;
78838;SDS011;68405;47.190;27.558;2023-03-13T11:35:25;3.10;;;1.80;;
78838;SDS011;68405;47.190;27.558;2023-03-13T11:38:12;2.50;;;1.70;;
78838;SDS011;68405;47.190;27.558;2023-03-13T11:40:51;4.40;;;1.80;;
78838;SDS011;68405;47.190;27.558;2023-03-13T11:43:34;4.40;;;2.60;;
78838;SDS011;68405;47.190;27.558;2023-03-13T11:46:17;6.00;;;2.10;;
78838;SDS011;68405;47.190;27.558;2023-03-13T11:51:58;4.80;;;2.10;;
78838;SDS011;68405;47.190;27.558;2023-03-13T11:54:44;3.50;;;2.10;;
78838;SDS011;68405;47.190;27.558;2023-03-13T11:57:28;5.20;;;2.60;;
78838;SDS011;68405;47.190;27.558;2023-03-13T12:00:16;4.20;;;2.20;;
78838;SDS011;68405;47.190;27.558;2023-03-13T12:02:52;4.10;;;2.30;;
78838;SDS011;68405;47.190;27.558;2023-03-13T12:05:36;3.50;;;2.30;;
78838;SDS011;68405;47.190;27.558;2023-03-13T12:08:14;3.10;;;1.90;;
78838;SDS011;68405;47.190;27.558;2023-03-13T12:10:49;3.70;;;2.50;;
78838;SDS011;68405;47.190;27.558;2023-03-13T12:13:34;4.50;;;2.30;;
78838;SDS011;68405;47.190;27.558;2023-03-13T12:16:13;6.20;;;2.40;;
78838;SDS011;68405;47.190;27.558;2023-03-13T12:18:50;6.00;;;2.60;;
78838;SDS011;68405;47.190;27.558;2023-03-13T12:21:25;4.50;;;2.80;;
78838;SDS011;68405;47.190;27.558;2023-03-13T12:24:02;2.80;;;2.00;;
78838;SDS011;68405;47.190;27.558;2023-03-13T12:26:41;4.10;;;2.50;;
78838;SDS011;68405;47.190;27.558;2023-03-13T12:29:18;6.00;;;2.40;;
78838;SDS011;68405;47.190;27.558;2023-03-13T12:32:01;3.30;;;1.80;;
78838;SDS011;68405;47.190;27.558;2023-03-13T12:34:41;4.50;;;2.50;;
78838;SDS011;68405;47.190;27.558;2023-03-13T12:37:27;4.30;;;2.70;;
78838;SDS011;68405;47.190;27.558;2023-03-13T12:40:09;3.90;;;2.50;;
78838;SDS011;68405;47.190;27.558;2023-03-13T12:42:48;4.10;;;2.60;;
78838;SDS011;68405;47.190;27.558;2023-03-13T12:57:03;3.40;;;2.20;;
78838;SDS011;68405;47.190;27.558;2023-03-13T12:59:51;4.70;;;2.80;;
78838;SDS011;68405;47.190;27.558;2023-03-13T13:02:27;4.30;;;3.00;;
78838;SDS011;68405;47.190;27.558;2023-03-13T13:05:00;3.80;;;2.30;;
78838;SDS011;68405;47.190;27.558;2023-03-13T13:07:33;4.90;;;2.80;;
78838;SDS011;68405;47.190;27.558;2023-03-13T13:10:18;4.50;;;2.80;;
78838;SDS011;68405;47.190;27.558;2023-03-13T13:16:02;3.90;;;2.60;;
78838;SDS011;68405;47.190;27.558;2023-03-13T13:18:40;9.00;;;3.00;;
78838;SDS011;68405;47.190;27.558;2023-03-13T13:21:24;4.40;;;2.70;;
78838;SDS011;68405;47.190;27.558;2023-03-13T13:24:03;3.90;;;2.40;;
78838;SDS011;68405;47.190;27.558;2023-03-13T13:30:31;3.70;;;2.50;;
78838;SDS011;68405;47.190;27.558;2023-03-13T13:38:59;4.10;;;2.50;;
78838;SDS011;68405;47.190;27.558;2023-03-13T13:41:50;4.40;;;2.10;;
78838;SDS011;68405;47.190;27.558;2023-03-13T13:44:28;6.10;;;2.40;;
78838;SDS011;68405;47.190;27.558;2023-03-13T13:47:02;4.50;;;2.80;;
78838;SDS011;68405;47.190;27.558;2023-03-13T13:49:53;6.80;;;3.10;;
78838;SDS011;68405;47.190;27.558;2023-03-13T13:52:32;4.20;;;2.50;;
78838;SDS011;68405;47.190;27.558;2023-03-13T13:58:16;5.00;;;2.50;;
78838;SDS011;68405;47.190;27.558;2023-03-13T14:00:53;5.50;;;3.50;;
78838;SDS011;68405;47.190;27.558;2023-03-13T14:03:29;3.90;;;2.50;;
78838;SDS011;68405;47.190;27.558;2023-03-13T14:06:14;4.40;;;2.70;;
78838;SDS011;68405;47.190;27.558;2023-03-13T14:08:50;6.10;;;2.50;;
78838;SDS011;68405;47.190;27.558;2023-03-13T14:11:25;5.40;;;2.50;;
78838;SDS011;68405;47.190;27.558;2023-03-13T14:14:09;4.90;;;3.00;;
78838;SDS011;68405;47.190;27.558;2023-03-13T14:16:43;6.20;;;2.80;;
78838;SDS011;68405;47.190;27.558;2023-03-13T14:21:58;7.80;;;3.30;;
78838;SDS011;68405;47.190;27.558;2023-03-13T14:24:32;8.20;;;3.70;;
78838;SDS011;68405;47.190;27.558;2023-03-13T14:27:15;5.80;;;3.20;;
78838;SDS011;68405;47.190;27.558;2023-03-13T14:30:01;6.30;;;3.50;;
78838;SDS011;68405;47.190;27.558;2023-03-13T14:32:36;5.70;;;3.30;;
78838;SDS011;68405;47.190;27.558;2023-03-13T14:35:09;5.80;;;3.40;;
78838;SDS011;68405;47.190;27.558;2023-03-13T14:37:43;7.10;;;4.00;;
78838;SDS011;68405;47.190;27.558;2023-03-13T14:40:23;5.80;;;4.00;;
78838;SDS011;68405;47.190;27.558;2023-03-13T14:42:57;6.00;;;3.70;;
78838;SDS011;68405;47.190;27.558;2023-03-13T14:45:30;7.30;;;4.30;;
78838;SDS011;68405;47.190;27.558;2023-03-13T14:48:04;6.40;;;4.20;;
78838;SDS011;68405;47.190;27.558;2023-03-13T14:50:49;6.50;;;4.10;;
78838;SDS011;68405;47.190;27.558;2023-03-13T14:53:23;7.60;;;4.60;;
78838;SDS011;68405;47.190;27.558;2023-03-13T14:59:06;7.60;;;4.00;;
78838;SDS011;68405;47.190;27.558;2023-03-13T15:01:44;9.10;;;4.30;;
78838;SDS011;68405;47.190;27.558;2023-03-13T15:12:51;6.60;;;3.90;;
78838;SDS011;68405;47.190;27.558;2023-03-13T15:15:23;9.40;;;4.60;;
78838;SDS011;68405;47.190;27.558;2023-03-13T15:17:54;7.30;;;4.30;;
78838;SDS011;68405;47.190;27.558;2023-03-13T15:20:26;8.20;;;4.70;;
78838;SDS011;68405;47.190;27.558;2023-03-13T15:22:58;9.70;;;3.60;;
78838;SDS011;68405;47.190;27.558;2023-03-13T15:25:29;6.30;;;3.70;;
78838;SDS011;68405;47.190;27.558;2023-03-13T15:28:01;5.90;;;3.80;;
78838;SDS011;68405;47.190;27.558;2023-03-13T15:30:34;7.70;;;3.70;;
78838;SDS011;68405;47.190;27.558;2023-03-13T15:33:07;5.40;;;3.60;;
78838;SDS011;68405;47.190;27.558;2023-03-13T15:35:43;6.50;;;3.90;;
78838;SDS011;68405;47.190;27.558;2023-03-13T15:38:16;5.00;;;2.80;;
78838;SDS011;68405;47.190;27.558;2023-03-13T15:40:49;5.20;;;3.30;;
78838;SDS011;68405;47.190;27.558;2023-03-13T15:43:21;5.90;;;3.20;;
78838;SDS011;68405;47.190;27.558;2023-03-13T15:45:53;6.90;;;3.70;;
78838;SDS011;68405;47.190;27.558;2023-03-13T15:48:26;5.40;;;3.30;;
78838;SDS011;68405;47.190;27.558;2023-03-13T15:51:00;7.00;;;4.90;;
78838;SDS011;68405;47.190;27.558;2023-03-13T15:53:33;6.60;;;3.80;;
78838;SDS011;68405;47.190;27.558;2023-03-13T15:56:09;6.10;;;3.50;;
78838;SDS011;68405;47.190;27.558;2023-03-13T15:58:45;8.00;;;3.70;;
78838;SDS011;68405;47.190;27.558;2023-03-13T16:01:18;8.30;;;4.70;;
78838;SDS011;68405;47.190;27.558;2023-03-13T16:03:50;9.20;;;5.10;;
78838;SDS011;68405;47.190;27.558;2023-03-13T16:06:22;6.70;;;3.80;;
78838;SDS011;68405;47.190;27.558;2023-03-13T16:08:59;7.90;;;3.80;;
78838;SDS011;68405;47.190;27.558;2023-03-13T16:11:33;6.80;;;4.00;;